sensor_id;sensor_type;location;lat;lon;timestamp;P1;durP1;ratioP1;P2;durP2;ratioP2
34978;SDS011;21185;50.978;13.720;2023-02-15T00:02:55;15.77;;;6.90;;
34978;SDS011;21185;50.978;13.720;2023-02-15T00:07:57;13.00;;;6.32;;
34978;SDS011;21185;50.978;13.720;2023-02-15T00:12:59;20.42;;;7.70;;
34978;SDS011;21185;50.978;13.720;2023-02-15T00:18:01;17.52;;;6.97;;
34978;SDS011;21185;50.978;13.720;2023-02-15T00:23:03;14.60;;;6.70;;
34978;SDS011;21185;50.978;13.720;2023-02-15T00:28:05;20.05;;;7.40;;
34978;SDS011;21185;50.978;13.720;2023-02-15T00:33:08;12.38;;;5.43;;
34978;SDS011;21185;50.978;13.720;2023-02-15T00:38:10;13.85;;;6.72;;
34978;SDS011;21185;50.978;13.720;2023-02-15T00:43:14;16.70;;;7.45;;
34978;SDS011;21185;50.978;13.720;2023-02-15T00:48:17;15.43;;;5.95;;
34978;SDS011;21185;50.978;13.720;2023-02-15T00:53:20;11.90;;;5.88;;
34978;SDS011;21185;50.978;13.720;2023-02-15T00:58:22;17.05;;;7.05;;
34978;SDS011;21185;50.978;13.720;2023-02-15T01:03:24;11.70;;;6.40;;
34978;SDS011;21185;50.978;13.720;2023-02-15T01:08:26;14.60;;;5.63;;
34978;SDS011;21185;50.978;13.720;2023-02-15T01:13:29;14.55;;;6.22;;
34978;SDS011;21185;50.978;13.720;2023-02-15T01:18:31;12.63;;;5.60;;
34978;SDS011;21185;50.978;13.720;2023-02-15T01:23:33;14.50;;;5.70;;
34978;SDS011;21185;50.978;13.720;2023-02-15T01:28:37;13.13;;;5.07;;
34978;SDS011;21185;50.978;13.720;2023-02-15T01:33:40;11.07;;;4.97;;
34978;SDS011;21185;50.978;13.720;2023-02-15T01:38:43;12.18;;;4.95;;
34978;SDS011;21185;50.978;13.720;2023-02-15T01:43:47;12.82;;;5.40;;
34978;SDS011;21185;50.978;13.720;2023-02-15T01:48:56;14.15;;;5.45;;
34978;SDS011;21185;50.978;13.720;2023-02-15T01:54:15;12.88;;;5.68;;
34978;SDS011;21185;50.978;13.720;2023-02-15T01:59:23;11.80;;;5.50;;
34978;SDS011;21185;50.978;13.720;2023-02-15T02:04:35;12.52;;;5.72;;
34978;SDS011;21185;50.978;13.720;2023-02-15T02:09:41;14.77;;;6.90;;
34978;SDS011;21185;50.978;13.720;2023-02-15T02:14:45;13.65;;;5.93;;
34978;SDS011;21185;50.978;13.720;2023-02-15T02:19:55;12.05;;;6.20;;
34978;SDS011;21185;50.978;13.720;2023-02-15T02:31:15;14.25;;;6.70;;
34978;SDS011;21185;50.978;13.720;2023-02-15T02:42:13;10.93;;;4.72;;
34978;SDS011;21185;50.978;13.720;2023-02-15T02:57:54;13.48;;;5.10;;
34978;SDS011;21185;50.978;13.720;2023-02-15T03:03:19;9.15;;;4.07;;
34978;SDS011;21185;50.978;13.720;2023-02-15T03:08:27;10.13;;;4.03;;
34978;SDS011;21185;50.978;13.720;2023-02-15T03:13:37;9.77;;;4.75;;
34978;SDS011;21185;50.978;13.720;2023-02-15T03:18:43;12.80;;;4.80;;
34978;SDS011;21185;50.978;13.720;2023-02-15T03:24:04;11.32;;;5.05;;
34978;SDS011;21185;50.978;13.720;2023-02-15T03:29:11;10.18;;;5.50;;
34978;SDS011;21185;50.978;13.720;2023-02-15T03:34:14;18.70;;;5.53;;
34978;SDS011;21185;50.978;13.720;2023-02-15T03:39:19;10.63;;;5.07;;
34978;SDS011;21185;50.978;13.720;2023-02-15T03:44:31;15.75;;;5.20;;
34978;SDS011;21185;50.978;13.720;2023-02-15T03:49:42;13.63;;;5.07;;
34978;SDS011;21185;50.978;13.720;2023-02-15T03:54:56;11.00;;;5.07;;
34978;SDS011;21185;50.978;13.720;2023-02-15T03:59:59;15.68;;;6.03;;
34978;SDS011;21185;50.978;13.720;2023-02-15T04:05:21;15.43;;;6.38;;
34978;SDS011;21185;50.978;13.720;2023-02-15T04:10:23;12.95;;;6.57;;
34978;SDS011;21185;50.978;13.720;2023-02-15T04:15:43;14.93;;;6.00;;
34978;SDS011;21185;50.978;13.720;2023-02-15T04:21:04;14.05;;;5.45;;
34978;SDS011;21185;50.978;13.720;2023-02-15T04:26:24;16.75;;;6.47;;
34978;SDS011;21185;50.978;13.720;2023-02-15T04:31:26;15.77;;;6.35;;
34978;SDS011;21185;50.978;13.720;2023-02-15T04:36:28;20.73;;;6.60;;
34978;SDS011;21185;50.978;13.720;2023-02-15T04:41:31;14.02;;;6.10;;
34978;SDS011;21185;50.978;13.720;2023-02-15T04:46:33;13.75;;;5.88;;
34978;SDS011;21185;50.978;13.720;2023-02-15T04:51:35;18.75;;;6.80;;
34978;SDS011;21185;50.978;13.720;2023-02-15T04:56:37;19.52;;;6.38;;
34978;SDS011;21185;50.978;13.720;2023-02-15T05:01:40;16.38;;;6.30;;
34978;SDS011;21185;50.978;13.720;2023-02-15T05:06:42;11.02;;;5.53;;
34978;SDS011;21185;50.978;13.720;2023-02-15T05:11:44;10.77;;;4.40;;
34978;SDS011;21185;50.978;13.720;2023-02-15T05:16:46;11.85;;;4.95;;
34978;SDS011;21185;50.978;13.720;2023-02-15T05:21:48;11.48;;;4.95;;
34978;SDS011;21185;50.978;13.720;2023-02-15T05:26:54;14.88;;;4.97;;
34978;SDS011;21185;50.978;13.720;2023-02-15T05:32:14;11.48;;;4.50;;
34978;SDS011;21185;50.978;13.720;2023-02-15T05:37:16;12.65;;;5.38;;
34978;SDS011;21185;50.978;13.720;2023-02-15T05:42:18;15.18;;;5.78;;
34978;SDS011;21185;50.978;13.720;2023-02-15T05:47:20;11.77;;;4.50;;
34978;SDS011;21185;50.978;13.720;2023-02-15T05:52:22;12.90;;;5.18;;
34978;SDS011;21185;50.978;13.720;2023-02-15T05:57:30;11.50;;;5.05;;
34978;SDS011;21185;50.978;13.720;2023-02-15T06:02:35;9.75;;;4.30;;
34978;SDS011;21185;50.978;13.720;2023-02-15T06:07:38;9.73;;;3.90;;
34978;SDS011;21185;50.978;13.720;2023-02-15T06:12:40;8.48;;;3.88;;
34978;SDS011;21185;50.978;13.720;2023-02-15T06:17:42;9.68;;;4.90;;
34978;SDS011;21185;50.978;13.720;2023-02-15T06:22:44;13.63;;;4.85;;
34978;SDS011;21185;50.978;13.720;2023-02-15T06:27:46;11.10;;;5.05;;
34978;SDS011;21185;50.978;13.720;2023-02-15T06:32:48;12.82;;;4.22;;
34978;SDS011;21185;50.978;13.720;2023-02-15T06:37:50;16.35;;;4.82;;
34978;SDS011;21185;50.978;13.720;2023-02-15T06:42:52;16.85;;;5.18;;
34978;SDS011;21185;50.978;13.720;2023-02-15T06:47:54;9.88;;;4.65;;
34978;SDS011;21185;50.978;13.720;2023-02-15T06:52:56;11.32;;;4.60;;
34978;SDS011;21185;50.978;13.720;2023-02-15T06:57:59;13.73;;;4.35;;
34978;SDS011;21185;50.978;13.720;2023-02-15T07:03:01;9.20;;;4.55;;
34978;SDS011;21185;50.978;13.720;2023-02-15T07:08:04;10.70;;;5.15;;
34978;SDS011;21185;50.978;13.720;2023-02-15T07:13:05;11.73;;;5.55;;
34978;SDS011;21185;50.978;13.720;2023-02-15T07:18:07;14.10;;;4.40;;
34978;SDS011;21185;50.978;13.720;2023-02-15T07:23:11;11.32;;;4.90;;
34978;SDS011;21185;50.978;13.720;2023-02-15T07:28:13;9.93;;;4.05;;
34978;SDS011;21185;50.978;13.720;2023-02-15T07:33:15;10.43;;;4.28;;
34978;SDS011;21185;50.978;13.720;2023-02-15T07:38:26;9.60;;;4.03;;
34978;SDS011;21185;50.978;13.720;2023-02-15T07:43:29;10.07;;;4.63;;
34978;SDS011;21185;50.978;13.720;2023-02-15T07:48:32;9.45;;;4.15;;
34978;SDS011;21185;50.978;13.720;2023-02-15T07:53:35;11.88;;;4.25;;
34978;SDS011;21185;50.978;13.720;2023-02-15T07:58:37;11.43;;;4.60;;
34978;SDS011;21185;50.978;13.720;2023-02-15T08:03:55;9.30;;;4.47;;
34978;SDS011;21185;50.978;13.720;2023-02-15T08:08:57;12.57;;;5.07;;
34978;SDS011;21185;50.978;13.720;2023-02-15T08:24:19;13.85;;;6.18;;
34978;SDS011;21185;50.978;13.720;2023-02-15T08:29:24;14.02;;;6.30;;
34978;SDS011;21185;50.978;13.720;2023-02-15T08:34:28;15.73;;;6.45;;
34978;SDS011;21185;50.978;13.720;2023-02-15T08:39:32;14.93;;;6.32;;
34978;SDS011;21185;50.978;13.720;2023-02-15T08:44:33;14.38;;;6.10;;
34978;SDS011;21185;50.978;13.720;2023-02-15T08:49:35;23.70;;;6.95;;
34978;SDS011;21185;50.978;13.720;2023-02-15T08:54:37;20.35;;;6.82;;
34978;SDS011;21185;50.978;13.720;2023-02-15T08:59:39;18.75;;;7.15;;
34978;SDS011;21185;50.978;13.720;2023-02-15T09:04:41;15.38;;;6.53;;
34978;SDS011;21185;50.978;13.720;2023-02-15T09:09:43;18.85;;;6.72;;
34978;SDS011;21185;50.978;13.720;2023-02-15T09:14:46;15.38;;;6.97;;
34978;SDS011;21185;50.978;13.720;2023-02-15T09:19:49;17.05;;;7.00;;
34978;SDS011;21185;50.978;13.720;2023-02-15T09:24:51;12.88;;;6.32;;
34978;SDS011;21185;50.978;13.720;2023-02-15T09:29:52;18.98;;;7.35;;
34978;SDS011;21185;50.978;13.720;2023-02-15T09:34:55;15.52;;;6.68;;
34978;SDS011;21185;50.978;13.720;2023-02-15T09:39:57;19.77;;;7.10;;
34978;SDS011;21185;50.978;13.720;2023-02-15T10:11:52;13.80;;;5.28;;
34978;SDS011;21185;50.978;13.720;2023-02-15T10:17:19;16.30;;;5.53;;
34978;SDS011;21185;50.978;13.720;2023-02-15T10:22:42;18.38;;;6.53;;
34978;SDS011;21185;50.978;13.720;2023-02-15T10:27:58;16.45;;;5.43;;
34978;SDS011;21185;50.978;13.720;2023-02-15T10:38:36;10.77;;;5.47;;
34978;SDS011;21185;50.978;13.720;2023-02-15T10:44:11;19.00;;;5.43;;
34978;SDS011;21185;50.978;13.720;2023-02-15T10:55:07;16.52;;;6.35;;
34978;SDS011;21185;50.978;13.720;2023-02-15T11:00:19;16.42;;;6.53;;
34978;SDS011;21185;50.978;13.720;2023-02-15T11:11:05;16.35;;;6.70;;
34978;SDS011;21185;50.978;13.720;2023-02-15T11:16:24;19.60;;;6.47;;
34978;SDS011;21185;50.978;13.720;2023-02-15T11:21:30;11.93;;;5.45;;
34978;SDS011;21185;50.978;13.720;2023-02-15T11:32:25;11.48;;;5.22;;
34978;SDS011;21185;50.978;13.720;2023-02-15T11:37:36;10.82;;;4.70;;
34978;SDS011;21185;50.978;13.720;2023-02-15T11:42:45;14.18;;;6.10;;
34978;SDS011;21185;50.978;13.720;2023-02-15T11:47:51;14.88;;;5.25;;
34978;SDS011;21185;50.978;13.720;2023-02-15T11:52:58;14.30;;;5.55;;
34978;SDS011;21185;50.978;13.720;2023-02-15T11:58:21;10.63;;;5.63;;
34978;SDS011;21185;50.978;13.720;2023-02-15T12:03:29;11.65;;;5.70;;
34978;SDS011;21185;50.978;13.720;2023-02-15T12:08:50;13.15;;;4.80;;
34978;SDS011;21185;50.978;13.720;2023-02-15T12:13:58;11.32;;;4.70;;
34978;SDS011;21185;50.978;13.720;2023-02-15T12:19:03;13.05;;;5.68;;
34978;SDS011;21185;50.978;13.720;2023-02-15T12:29:48;13.70;;;5.57;;
34978;SDS011;21185;50.978;13.720;2023-02-15T12:35:01;12.13;;;5.47;;
34978;SDS011;21185;50.978;13.720;2023-02-15T12:40:24;9.75;;;4.57;;
34978;SDS011;21185;50.978;13.720;2023-02-15T12:45:32;13.00;;;5.38;;
34978;SDS011;21185;50.978;13.720;2023-02-15T12:50:36;19.98;;;6.28;;
34978;SDS011;21185;50.978;13.720;2023-02-15T12:55:38;11.45;;;5.22;;
34978;SDS011;21185;50.978;13.720;2023-02-15T13:00:46;16.70;;;6.25;;
34978;SDS011;21185;50.978;13.720;2023-02-15T13:05:50;12.95;;;5.63;;
34978;SDS011;21185;50.978;13.720;2023-02-15T13:16:09;20.45;;;6.63;;
34978;SDS011;21185;50.978;13.720;2023-02-15T13:21:22;24.73;;;6.97;;
34978;SDS011;21185;50.978;13.720;2023-02-15T13:26:29;15.05;;;6.97;;
34978;SDS011;21185;50.978;13.720;2023-02-15T13:31:33;16.50;;;7.28;;
34978;SDS011;21185;50.978;13.720;2023-02-15T13:52:20;16.98;;;7.50;;
34978;SDS011;21185;50.978;13.720;2023-02-15T13:57:38;19.80;;;6.68;;
34978;SDS011;21185;50.978;13.720;2023-02-15T14:24:59;20.55;;;7.85;;
34978;SDS011;21185;50.978;13.720;2023-02-15T14:30:20;23.85;;;7.97;;
34978;SDS011;21185;50.978;13.720;2023-02-15T14:35:28;20.58;;;8.18;;
34978;SDS011;21185;50.978;13.720;2023-02-15T14:56:44;22.50;;;8.13;;
34978;SDS011;21185;50.978;13.720;2023-02-15T15:01:51;22.30;;;8.45;;
34978;SDS011;21185;50.978;13.720;2023-02-15T15:12:52;19.65;;;7.88;;
34978;SDS011;21185;50.978;13.720;2023-02-15T15:17:57;28.80;;;9.13;;
34978;SDS011;21185;50.978;13.720;2023-02-15T15:33:42;20.98;;;8.95;;
34978;SDS011;21185;50.978;13.720;2023-02-15T15:49:50;19.98;;;8.70;;
34978;SDS011;21185;50.978;13.720;2023-02-15T15:55:03;25.85;;;10.73;;
34978;SDS011;21185;50.978;13.720;2023-02-15T16:00:28;28.80;;;10.43;;
34978;SDS011;21185;50.978;13.720;2023-02-15T16:05:37;32.53;;;12.38;;
34978;SDS011;21185;50.978;13.720;2023-02-15T16:10:39;22.48;;;9.48;;
34978;SDS011;21185;50.978;13.720;2023-02-15T16:15:43;23.23;;;8.43;;
34978;SDS011;21185;50.978;13.720;2023-02-15T16:20:59;22.30;;;10.05;;
34978;SDS011;21185;50.978;13.720;2023-02-15T16:31:26;28.52;;;9.68;;
34978;SDS011;21185;50.978;13.720;2023-02-15T16:36:28;20.73;;;8.57;;
34978;SDS011;21185;50.978;13.720;2023-02-15T16:41:30;25.08;;;9.23;;
34978;SDS011;21185;50.978;13.720;2023-02-15T16:46:51;25.90;;;9.77;;
34978;SDS011;21185;50.978;13.720;2023-02-15T16:52:05;25.50;;;9.40;;
34978;SDS011;21185;50.978;13.720;2023-02-15T16:57:18;21.40;;;8.32;;
34978;SDS011;21185;50.978;13.720;2023-02-15T17:02:24;20.73;;;8.32;;
34978;SDS011;21185;50.978;13.720;2023-02-15T17:07:50;27.17;;;9.77;;
34978;SDS011;21185;50.978;13.720;2023-02-15T17:13:12;27.90;;;8.05;;
34978;SDS011;21185;50.978;13.720;2023-02-15T17:18:19;22.10;;;9.02;;
34978;SDS011;21185;50.978;13.720;2023-02-15T17:23:43;22.10;;;8.13;;
34978;SDS011;21185;50.978;13.720;2023-02-15T17:28:51;21.67;;;9.05;;
34978;SDS011;21185;50.978;13.720;2023-02-15T17:33:58;19.67;;;8.73;;
34978;SDS011;21185;50.978;13.720;2023-02-15T17:39:02;21.88;;;7.78;;
34978;SDS011;21185;50.978;13.720;2023-02-15T17:44:08;24.60;;;9.00;;
34978;SDS011;21185;50.978;13.720;2023-02-15T17:49:22;24.95;;;8.82;;
34978;SDS011;21185;50.978;13.720;2023-02-15T17:54:26;24.42;;;7.90;;
34978;SDS011;21185;50.978;13.720;2023-02-15T17:59:47;21.92;;;8.77;;
34978;SDS011;21185;50.978;13.720;2023-02-15T18:05:12;23.45;;;8.68;;
34978;SDS011;21185;50.978;13.720;2023-02-15T18:10:33;31.60;;;9.90;;
34978;SDS011;21185;50.978;13.720;2023-02-15T18:15:53;19.23;;;9.15;;
34978;SDS011;21185;50.978;13.720;2023-02-15T18:20:57;21.33;;;8.02;;
34978;SDS011;21185;50.978;13.720;2023-02-15T18:25:58;17.45;;;7.70;;
34978;SDS011;21185;50.978;13.720;2023-02-15T18:31:00;18.98;;;9.38;;
34978;SDS011;21185;50.978;13.720;2023-02-15T18:36:03;21.55;;;7.38;;
34978;SDS011;21185;50.978;13.720;2023-02-15T18:41:09;21.42;;;9.05;;
34978;SDS011;21185;50.978;13.720;2023-02-15T18:46:17;21.05;;;8.00;;
34978;SDS011;21185;50.978;13.720;2023-02-15T18:51:19;23.45;;;8.43;;
34978;SDS011;21185;50.978;13.720;2023-02-15T18:56:23;28.80;;;11.30;;
34978;SDS011;21185;50.978;13.720;2023-02-15T19:01:25;27.88;;;11.02;;
34978;SDS011;21185;50.978;13.720;2023-02-15T19:06:28;22.05;;;8.75;;
34978;SDS011;21185;50.978;13.720;2023-02-15T19:11:30;23.73;;;9.70;;
34978;SDS011;21185;50.978;13.720;2023-02-15T19:16:33;21.23;;;8.77;;
34978;SDS011;21185;50.978;13.720;2023-02-15T19:21:36;23.08;;;9.90;;
34978;SDS011;21185;50.978;13.720;2023-02-15T19:26:40;20.33;;;7.70;;
34978;SDS011;21185;50.978;13.720;2023-02-15T19:31:46;22.63;;;10.23;;
34978;SDS011;21185;50.978;13.720;2023-02-15T19:36:49;23.55;;;7.75;;
34978;SDS011;21185;50.978;13.720;2023-02-15T19:41:53;28.60;;;11.38;;
34978;SDS011;21185;50.978;13.720;2023-02-15T19:46:56;27.33;;;9.95;;
34978;SDS011;21185;50.978;13.720;2023-02-15T19:51:58;22.77;;;9.30;;
34978;SDS011;21185;50.978;13.720;2023-02-15T19:57:00;29.65;;;11.57;;
34978;SDS011;21185;50.978;13.720;2023-02-15T20:02:02;25.42;;;11.23;;
34978;SDS011;21185;50.978;13.720;2023-02-15T20:07:06;22.05;;;9.77;;
34978;SDS011;21185;50.978;13.720;2023-02-15T20:12:21;27.65;;;9.70;;
34978;SDS011;21185;50.978;13.720;2023-02-15T20:17:25;25.17;;;9.13;;
34978;SDS011;21185;50.978;13.720;2023-02-15T20:22:27;20.80;;;7.22;;
34978;SDS011;21185;50.978;13.720;2023-02-15T20:27:29;18.50;;;7.72;;
34978;SDS011;21185;50.978;13.720;2023-02-15T20:32:31;22.10;;;8.73;;
34978;SDS011;21185;50.978;13.720;2023-02-15T20:37:33;24.08;;;8.60;;
34978;SDS011;21185;50.978;13.720;2023-02-15T20:42:35;24.30;;;8.38;;
34978;SDS011;21185;50.978;13.720;2023-02-15T20:47:37;20.52;;;8.18;;
34978;SDS011;21185;50.978;13.720;2023-02-15T20:52:39;25.42;;;9.73;;
34978;SDS011;21185;50.978;13.720;2023-02-15T20:57:41;21.33;;;10.00;;
34978;SDS011;21185;50.978;13.720;2023-02-15T21:02:47;23.50;;;10.02;;
34978;SDS011;21185;50.978;13.720;2023-02-15T21:07:51;18.40;;;7.87;;
34978;SDS011;21185;50.978;13.720;2023-02-15T21:12:54;18.50;;;8.23;;
34978;SDS011;21185;50.978;13.720;2023-02-15T21:17:59;19.55;;;8.02;;
34978;SDS011;21185;50.978;13.720;2023-02-15T21:23:06;23.75;;;7.95;;
34978;SDS011;21185;50.978;13.720;2023-02-15T21:28:15;20.45;;;7.55;;
34978;SDS011;21185;50.978;13.720;2023-02-15T21:33:22;22.55;;;8.20;;
34978;SDS011;21185;50.978;13.720;2023-02-15T21:38:26;20.65;;;8.60;;
34978;SDS011;21185;50.978;13.720;2023-02-15T21:43:31;23.67;;;8.48;;
34978;SDS011;21185;50.978;13.720;2023-02-15T21:48:51;20.85;;;8.23;;
34978;SDS011;21185;50.978;13.720;2023-02-15T21:53:53;22.25;;;7.80;;
34978;SDS011;21185;50.978;13.720;2023-02-15T21:58:55;24.50;;;8.80;;
34978;SDS011;21185;50.978;13.720;2023-02-15T22:03:57;21.55;;;8.55;;
34978;SDS011;21185;50.978;13.720;2023-02-15T22:08:59;21.65;;;8.38;;
34978;SDS011;21185;50.978;13.720;2023-02-15T22:14:01;18.67;;;7.65;;
34978;SDS011;21185;50.978;13.720;2023-02-15T22:19:04;26.13;;;8.32;;
34978;SDS011;21185;50.978;13.720;2023-02-15T22:24:06;22.05;;;7.35;;
34978;SDS011;21185;50.978;13.720;2023-02-15T22:29:26;18.90;;;7.63;;
34978;SDS011;21185;50.978;13.720;2023-02-15T22:34:29;23.70;;;9.00;;
34978;SDS011;21185;50.978;13.720;2023-02-15T22:39:32;18.83;;;7.32;;
34978;SDS011;21185;50.978;13.720;2023-02-15T22:44:35;19.17;;;6.72;;
34978;SDS011;21185;50.978;13.720;2023-02-15T22:49:36;20.08;;;6.95;;
34978;SDS011;21185;50.978;13.720;2023-02-15T22:54:38;19.20;;;6.75;;
34978;SDS011;21185;50.978;13.720;2023-02-15T22:59:40;16.48;;;6.50;;
34978;SDS011;21185;50.978;13.720;2023-02-15T23:04:42;21.30;;;7.68;;
34978;SDS011;21185;50.978;13.720;2023-02-15T23:09:44;15.13;;;6.50;;
34978;SDS011;21185;50.978;13.720;2023-02-15T23:14:46;21.98;;;7.90;;
34978;SDS011;21185;50.978;13.720;2023-02-15T23:19:49;19.13;;;7.35;;
34978;SDS011;21185;50.978;13.720;2023-02-15T23:24:51;23.02;;;8.35;;
34978;SDS011;21185;50.978;13.720;2023-02-15T23:29:53;26.83;;;7.03;;
34978;SDS011;21185;50.978;13.720;2023-02-15T23:34:55;19.23;;;7.38;;
34978;SDS011;21185;50.978;13.720;2023-02-15T23:39:57;16.73;;;7.32;;
34978;SDS011;21185;50.978;13.720;2023-02-15T23:45:20;18.98;;;8.15;;
34978;SDS011;21185;50.978;13.720;2023-02-15T23:50:25;19.42;;;6.85;;
34978;SDS011;21185;50.978;13.720;2023-02-15T23:55:35;20.92;;;7.45;;
